NEXUS17 FNGI-FNCT
Flight info
| Callsign | NEXUS17 |
|---|---|
| Flight time | 1h 10m |
| Altitude | 15000 |
| Route | IXELO J614 BENGA |
| Aircraft | PC12/L-SDFGRWY/S |
Departure
| Time | 2026-05-06 20:20 |
|---|---|
| Airport | Ngjiva Pereira Airport (FNGI) |
Arrival
| Time | 2026-05-06 21:30 |
|---|---|
| Airport | Catumbela Airport (FNCT) |
| Time | Latitude | Longitude | Altitude | Speed | Heading |
|---|---|---|---|---|---|
| 2026-05-06 20:13 | -17.04868 | 15.69154 | 3652 ft | 0 kts | 205° |
| 2026-05-06 20:17 | -17.04869 | 15.69153 | 3652 ft | 2 kts | 218° |
| 2026-05-06 20:17 | -17.04847 | 15.69126 | 3652 ft | 11 kts | 324° |
| 2026-05-06 20:18 | -17.04828 | 15.69112 | 3652 ft | 4 kts | 325° |
| 2026-05-06 20:18 | -17.04804 | 15.69104 | 3653 ft | 2 kts | 22° |
| 2026-05-06 20:18 | -17.04770 | 15.69139 | 3653 ft | 10 kts | 45° |
| 2026-05-06 20:18 | -17.04732 | 15.69161 | 3653 ft | 5 kts | 12° |
| 2026-05-06 20:19 | -17.04699 | 15.69155 | 3654 ft | 6 kts | 300° |
| 2026-05-06 20:19 | -17.04666 | 15.69089 | 3654 ft | 18 kts | 297° |
| 2026-05-06 20:19 | -17.04507 | 15.68720 | 3654 ft | 96 kts | 294° |
| 2026-05-06 20:19 | -17.04120 | 15.67907 | 3785 ft | 149 kts | 299° |
| 2026-05-06 20:20 | -17.03305 | 15.67078 | 4344 ft | 177 kts | 322° |
| 2026-05-06 20:20 | -17.02260 | 15.66221 | 5009 ft | 206 kts | 322° |
| 2026-05-06 20:20 | -17.01102 | 15.65191 | 5678 ft | 230 kts | 315° |
| 2026-05-06 20:20 | -16.99917 | 15.63953 | 6368 ft | 250 kts | 314° |
| 2026-05-06 20:21 | -16.98619 | 15.62670 | 7030 ft | 261 kts | 315° |
| 2026-05-06 20:21 | -16.97293 | 15.61358 | 7676 ft | 264 kts | 314° |
| 2026-05-06 20:21 | -16.95980 | 15.60041 | 8503 ft | 259 kts | 314° |
| 2026-05-06 20:21 | -16.94674 | 15.58742 | 9414 ft | 260 kts | 314° |
| 2026-05-06 20:22 | -16.93385 | 15.57457 | 10299 ft | 259 kts | 313° |
| 2026-05-06 20:22 | -16.92095 | 15.56167 | 11232 ft | 255 kts | 314° |
| 2026-05-06 20:22 | -16.90821 | 15.54900 | 12203 ft | 251 kts | 314° |
| 2026-05-06 20:22 | -16.89571 | 15.53655 | 13200 ft | 246 kts | 315° |
| 2026-05-06 20:23 | -16.88338 | 15.52426 | 14110 ft | 247 kts | 315° |
| 2026-05-06 20:23 | -16.87055 | 15.51152 | 14600 ft | 264 kts | 315° |
| 2026-05-06 20:23 | -16.85661 | 15.49763 | 14837 ft | 289 kts | 315° |
| 2026-05-06 20:23 | -16.84142 | 15.48251 | 14955 ft | 312 kts | 315° |
| 2026-05-06 20:24 | -16.82527 | 15.46645 | 15006 ft | 329 kts | 315° |
| 2026-05-06 20:24 | -16.80845 | 15.44971 | 15023 ft | 339 kts | 315° |
| 2026-05-06 20:24 | -16.79126 | 15.43262 | 15025 ft | 343 kts | 315° |
| 2026-05-06 20:24 | -16.77391 | 15.41537 | 15018 ft | 345 kts | 315° |
| 2026-05-06 20:25 | -16.75653 | 15.39809 | 15020 ft | 346 kts | 315° |
| 2026-05-06 20:25 | -16.73914 | 15.38080 | 15014 ft | 346 kts | 315° |
| 2026-05-06 20:25 | -16.72178 | 15.36356 | 15016 ft | 346 kts | 315° |
| 2026-05-06 20:25 | -16.70455 | 15.34644 | 15003 ft | 346 kts | 315° |
| 2026-05-06 20:26 | -16.68710 | 15.32911 | 15006 ft | 346 kts | 315° |
| 2026-05-06 20:26 | -16.66968 | 15.31182 | 15005 ft | 346 kts | 315° |
| 2026-05-06 20:26 | -16.65223 | 15.29450 | 15004 ft | 346 kts | 315° |
| 2026-05-06 20:26 | -16.63481 | 15.27722 | 15006 ft | 346 kts | 315° |
| 2026-05-06 20:27 | -16.61736 | 15.25991 | 15001 ft | 346 kts | 315° |
| 2026-05-06 20:27 | -16.59993 | 15.24262 | 15003 ft | 346 kts | 315° |
| 2026-05-06 20:27 | -16.58250 | 15.22534 | 15001 ft | 346 kts | 315° |
| 2026-05-06 20:27 | -16.56506 | 15.20806 | 15008 ft | 346 kts | 315° |
| 2026-05-06 20:28 | -16.54758 | 15.19074 | 15010 ft | 346 kts | 315° |
| 2026-05-06 20:28 | -16.53011 | 15.17343 | 15008 ft | 346 kts | 315° |
| 2026-05-06 20:28 | -16.51283 | 15.15633 | 15002 ft | 346 kts | 315° |
| 2026-05-06 20:28 | -16.49536 | 15.13902 | 15011 ft | 346 kts | 316° |
| 2026-05-06 20:29 | -16.47789 | 15.12173 | 15009 ft | 346 kts | 316° |
| 2026-05-06 20:29 | -16.46042 | 15.10443 | 15006 ft | 346 kts | 316° |
| 2026-05-06 20:29 | -16.44296 | 15.08717 | 15009 ft | 346 kts | 316° |
| 2026-05-06 20:29 | -16.42560 | 15.07000 | 15012 ft | 346 kts | 316° |
| 2026-05-06 20:30 | -16.41077 | 15.05533 | 15002 ft | 346 kts | 316° |
| 2026-05-06 20:30 | -16.37583 | 15.02081 | 15007 ft | 346 kts | 316° |
| 2026-05-06 20:30 | -16.35836 | 15.00353 | 15009 ft | 346 kts | 316° |
| 2026-05-06 20:31 | -16.34085 | 14.98625 | 15009 ft | 346 kts | 316° |
| 2026-05-06 20:31 | -16.32341 | 14.96900 | 15003 ft | 346 kts | 316° |
| 2026-05-06 20:31 | -16.30592 | 14.95176 | 15013 ft | 346 kts | 316° |
| 2026-05-06 20:31 | -16.28841 | 14.93447 | 15016 ft | 346 kts | 316° |
| 2026-05-06 20:32 | -16.27094 | 14.91722 | 15020 ft | 346 kts | 316° |
| 2026-05-06 20:32 | -16.25345 | 14.89996 | 15022 ft | 346 kts | 316° |
| 2026-05-06 20:32 | -16.23596 | 14.88272 | 15020 ft | 347 kts | 316° |
| 2026-05-06 20:32 | -16.21847 | 14.86548 | 15017 ft | 346 kts | 316° |
| 2026-05-06 20:33 | -16.20098 | 14.84822 | 15007 ft | 346 kts | 316° |
| 2026-05-06 20:33 | -16.18349 | 14.83100 | 15013 ft | 346 kts | 316° |
| 2026-05-06 20:33 | -16.16621 | 14.81397 | 15012 ft | 347 kts | 316° |
| 2026-05-06 20:33 | -16.14871 | 14.79673 | 15011 ft | 347 kts | 316° |
| 2026-05-06 20:34 | -16.13117 | 14.77946 | 15015 ft | 347 kts | 316° |
| 2026-05-06 20:34 | -16.11368 | 14.76224 | 15018 ft | 347 kts | 316° |
| 2026-05-06 20:34 | -16.09616 | 14.74500 | 15019 ft | 347 kts | 316° |
| 2026-05-06 20:34 | -16.07861 | 14.72772 | 15013 ft | 347 kts | 316° |
| 2026-05-06 20:35 | -16.06110 | 14.71050 | 15022 ft | 347 kts | 316° |
| 2026-05-06 20:35 | -16.04358 | 14.69326 | 15024 ft | 347 kts | 316° |
| 2026-05-06 20:35 | -16.02603 | 14.67600 | 15029 ft | 347 kts | 316° |
| 2026-05-06 20:35 | -16.00847 | 14.65876 | 15031 ft | 347 kts | 316° |
| 2026-05-06 20:36 | -15.99093 | 14.64152 | 15029 ft | 347 kts | 316° |
| 2026-05-06 20:36 | -15.97337 | 14.62425 | 15017 ft | 347 kts | 316° |
| 2026-05-06 20:36 | -15.95582 | 14.60701 | 15016 ft | 347 kts | 316° |
| 2026-05-06 20:36 | -15.93827 | 14.58979 | 15028 ft | 347 kts | 316° |
| 2026-05-06 20:37 | -15.92070 | 14.57253 | 15031 ft | 347 kts | 316° |
| 2026-05-06 20:37 | -15.90309 | 14.55526 | 15032 ft | 348 kts | 316° |
| 2026-05-06 20:37 | -15.88553 | 14.53802 | 15029 ft | 348 kts | 316° |
| 2026-05-06 20:37 | -15.86793 | 14.52074 | 15039 ft | 348 kts | 316° |
| 2026-05-06 20:38 | -15.85033 | 14.50349 | 15036 ft | 348 kts | 316° |
| 2026-05-06 20:38 | -15.83272 | 14.48623 | 15032 ft | 348 kts | 316° |
| 2026-05-06 20:38 | -15.81534 | 14.46919 | 15042 ft | 348 kts | 316° |
| 2026-05-06 20:38 | -15.79775 | 14.45195 | 15042 ft | 348 kts | 316° |
| 2026-05-06 20:39 | -15.78008 | 14.43463 | 15044 ft | 349 kts | 316° |
| 2026-05-06 20:39 | -15.76244 | 14.41736 | 15037 ft | 349 kts | 316° |
| 2026-05-06 20:39 | -15.74480 | 14.40008 | 15045 ft | 349 kts | 316° |
| 2026-05-06 20:39 | -15.72715 | 14.38279 | 15033 ft | 349 kts | 316° |
| 2026-05-06 20:40 | -15.70951 | 14.36554 | 15038 ft | 349 kts | 316° |
| 2026-05-06 20:40 | -15.69186 | 14.34825 | 15043 ft | 349 kts | 316° |
| 2026-05-06 20:40 | -15.67418 | 14.33097 | 15040 ft | 349 kts | 316° |
| 2026-05-06 20:40 | -15.65654 | 14.31371 | 15051 ft | 349 kts | 316° |
| 2026-05-06 20:41 | -15.63885 | 14.29642 | 15064 ft | 350 kts | 316° |
| 2026-05-06 20:41 | -15.62115 | 14.27910 | 15056 ft | 350 kts | 316° |
| 2026-05-06 20:41 | -15.60344 | 14.26180 | 15054 ft | 350 kts | 316° |
| 2026-05-06 20:41 | -15.58574 | 14.24451 | 15052 ft | 350 kts | 316° |
| 2026-05-06 20:42 | -15.56803 | 14.22720 | 15056 ft | 350 kts | 316° |
| 2026-05-06 20:42 | -15.55031 | 14.20991 | 15052 ft | 350 kts | 316° |
| 2026-05-06 20:42 | -15.53286 | 14.19285 | 15061 ft | 350 kts | 316° |
| 2026-05-06 20:42 | -15.51515 | 14.17558 | 15058 ft | 350 kts | 316° |
| 2026-05-06 20:43 | -15.49744 | 14.15829 | 15051 ft | 350 kts | 316° |
| 2026-05-06 20:43 | -15.47974 | 14.14102 | 15046 ft | 350 kts | 316° |
| 2026-05-06 20:43 | -15.46202 | 14.12373 | 15045 ft | 350 kts | 316° |
| 2026-05-06 20:43 | -15.44430 | 14.10646 | 15051 ft | 349 kts | 316° |
| 2026-05-06 20:44 | -15.42658 | 14.08919 | 15051 ft | 349 kts | 316° |
| 2026-05-06 20:44 | -15.40886 | 14.07191 | 15051 ft | 349 kts | 316° |
| 2026-05-06 20:44 | -15.39115 | 14.05465 | 15057 ft | 349 kts | 316° |
| 2026-05-06 20:44 | -15.37344 | 14.03740 | 15056 ft | 349 kts | 316° |
| 2026-05-06 20:45 | -15.35573 | 14.02015 | 15051 ft | 349 kts | 317° |
| 2026-05-06 20:45 | -15.33802 | 14.00291 | 15061 ft | 349 kts | 316° |
| 2026-05-06 20:45 | -15.32033 | 13.98568 | 15069 ft | 350 kts | 317° |
| 2026-05-06 20:45 | -15.30260 | 13.96843 | 15080 ft | 350 kts | 317° |
| 2026-05-06 20:46 | -15.28483 | 13.95114 | 15080 ft | 350 kts | 317° |
| 2026-05-06 20:46 | -15.26709 | 13.93388 | 15067 ft | 350 kts | 317° |
| 2026-05-06 20:46 | -15.24933 | 13.91661 | 15067 ft | 350 kts | 317° |
| 2026-05-06 20:46 | -15.23160 | 13.89936 | 15060 ft | 350 kts | 317° |
| 2026-05-06 20:47 | -15.21388 | 13.88214 | 15047 ft | 349 kts | 317° |
| 2026-05-06 20:47 | -15.19617 | 13.86493 | 15061 ft | 349 kts | 317° |
| 2026-05-06 20:47 | -15.17873 | 13.84797 | 15052 ft | 349 kts | 317° |
| 2026-05-06 20:47 | -15.16077 | 13.83054 | 15074 ft | 349 kts | 317° |
| 2026-05-06 20:48 | -15.14307 | 13.81336 | 15086 ft | 349 kts | 317° |
| 2026-05-06 20:48 | -15.12540 | 13.79618 | 15102 ft | 349 kts | 317° |
| 2026-05-06 20:48 | -15.10769 | 13.77900 | 15109 ft | 348 kts | 317° |
| 2026-05-06 20:48 | -15.09002 | 13.76185 | 15138 ft | 348 kts | 317° |
| 2026-05-06 20:49 | -15.07235 | 13.74471 | 15147 ft | 348 kts | 317° |
| 2026-05-06 20:49 | -15.05491 | 13.72780 | 15177 ft | 348 kts | 317° |
| 2026-05-06 20:49 | -15.03724 | 13.71066 | 15196 ft | 348 kts | 317° |
| 2026-05-06 20:49 | -15.01957 | 13.69353 | 15210 ft | 348 kts | 317° |
| 2026-05-06 20:50 | -15.00188 | 13.67638 | 15238 ft | 348 kts | 317° |
| 2026-05-06 20:50 | -14.98422 | 13.65927 | 15262 ft | 348 kts | 317° |
| 2026-05-06 20:50 | -14.96657 | 13.64217 | 15271 ft | 348 kts | 317° |
| 2026-05-06 20:50 | -14.94847 | 13.62560 | 15267 ft | 347 kts | 326° |
| 2026-05-06 20:51 | -14.92676 | 13.61492 | 15266 ft | 346 kts | 341° |
| 2026-05-06 20:51 | -14.90372 | 13.60773 | 15263 ft | 346 kts | 346° |
| 2026-05-06 20:51 | -14.88026 | 13.60231 | 15263 ft | 346 kts | 349° |
| 2026-05-06 20:51 | -14.85662 | 13.59764 | 15259 ft | 346 kts | 350° |
| 2026-05-06 20:52 | -14.83293 | 13.59327 | 15257 ft | 345 kts | 351° |
| 2026-05-06 20:52 | -14.80902 | 13.59096 | 15238 ft | 345 kts | 357° |
| 2026-05-06 20:52 | -14.78511 | 13.58911 | 15222 ft | 345 kts | 355° |
| 2026-05-06 20:52 | -14.76123 | 13.58692 | 15197 ft | 345 kts | 356° |
| 2026-05-06 20:53 | -14.73733 | 13.58500 | 15179 ft | 344 kts | 355° |
| 2026-05-06 20:53 | -14.71348 | 13.58289 | 15153 ft | 344 kts | 355° |
| 2026-05-06 20:53 | -14.68960 | 13.58089 | 15140 ft | 344 kts | 355° |
| 2026-05-06 20:53 | -14.66576 | 13.57886 | 15111 ft | 344 kts | 355° |
| 2026-05-06 20:54 | -14.64194 | 13.57682 | 15086 ft | 344 kts | 355° |
| 2026-05-06 20:54 | -14.61813 | 13.57480 | 15061 ft | 343 kts | 355° |
| 2026-05-06 20:54 | -14.59430 | 13.57278 | 15041 ft | 343 kts | 355° |
| 2026-05-06 20:54 | -14.57052 | 13.57075 | 15017 ft | 343 kts | 355° |
| 2026-05-06 20:55 | -14.54678 | 13.56873 | 15010 ft | 343 kts | 355° |
| 2026-05-06 20:55 | -14.52300 | 13.56671 | 15004 ft | 342 kts | 355° |
| 2026-05-06 20:55 | -14.49927 | 13.56470 | 15000 ft | 342 kts | 355° |
| 2026-05-06 20:55 | -14.47553 | 13.56269 | 15000 ft | 342 kts | 355° |
| 2026-05-06 20:56 | -14.45212 | 13.56069 | 15003 ft | 342 kts | 355° |
| 2026-05-06 20:56 | -14.42840 | 13.55869 | 15000 ft | 342 kts | 355° |
| 2026-05-06 20:56 | -14.40468 | 13.55667 | 15001 ft | 342 kts | 355° |
| 2026-05-06 20:56 | -14.38095 | 13.55466 | 14995 ft | 342 kts | 355° |
| 2026-05-06 20:57 | -14.35725 | 13.55264 | 15002 ft | 342 kts | 355° |
| 2026-05-06 20:57 | -14.33353 | 13.55063 | 14997 ft | 342 kts | 355° |
| 2026-05-06 20:57 | -14.30987 | 13.54863 | 14994 ft | 342 kts | 355° |
| 2026-05-06 20:57 | -14.28620 | 13.54662 | 14990 ft | 341 kts | 355° |
| 2026-05-06 20:58 | -14.26251 | 13.54462 | 14993 ft | 341 kts | 355° |
| 2026-05-06 20:58 | -14.23882 | 13.54261 | 14986 ft | 341 kts | 355° |
| 2026-05-06 20:58 | -14.21512 | 13.54060 | 14991 ft | 341 kts | 355° |
| 2026-05-06 20:58 | -14.19143 | 13.53860 | 14984 ft | 341 kts | 355° |
| 2026-05-06 20:59 | -14.17579 | 13.53727 | 14979 ft | 341 kts | 355° |
| 2026-05-06 20:59 | -14.15215 | 13.53527 | 14981 ft | 340 kts | 355° |
| 2026-05-06 20:59 | -14.12855 | 13.53327 | 14975 ft | 340 kts | 355° |
| 2026-05-06 20:59 | -14.10492 | 13.53127 | 14976 ft | 340 kts | 355° |
| 2026-05-06 21:00 | -14.08129 | 13.52927 | 14983 ft | 341 kts | 355° |
| 2026-05-06 21:00 | -14.05762 | 13.52727 | 14981 ft | 341 kts | 355° |
| 2026-05-06 21:00 | -14.03401 | 13.52527 | 14981 ft | 341 kts | 355° |
| 2026-05-06 21:00 | -14.01034 | 13.52326 | 14981 ft | 341 kts | 355° |
| 2026-05-06 21:01 | -13.98664 | 13.52126 | 14981 ft | 341 kts | 355° |
| 2026-05-06 21:01 | -13.96298 | 13.51927 | 14978 ft | 341 kts | 355° |
| 2026-05-06 21:01 | -13.93931 | 13.51726 | 14979 ft | 341 kts | 355° |
| 2026-05-06 21:01 | -13.91594 | 13.51529 | 14977 ft | 341 kts | 355° |
| 2026-05-06 21:02 | -13.89226 | 13.51329 | 14985 ft | 341 kts | 355° |
| 2026-05-06 21:02 | -13.86858 | 13.51129 | 14986 ft | 341 kts | 355° |
| 2026-05-06 21:02 | -13.84492 | 13.50929 | 14983 ft | 341 kts | 355° |
| 2026-05-06 21:02 | -13.82123 | 13.50729 | 14979 ft | 341 kts | 355° |
| 2026-05-06 21:03 | -13.79758 | 13.50529 | 14976 ft | 341 kts | 355° |
| 2026-05-06 21:03 | -13.77390 | 13.50330 | 14976 ft | 341 kts | 355° |
| 2026-05-06 21:03 | -13.75023 | 13.50130 | 14971 ft | 341 kts | 355° |
| 2026-05-06 21:03 | -13.72656 | 13.49930 | 14969 ft | 341 kts | 355° |
| 2026-05-06 21:04 | -13.70293 | 13.49731 | 14971 ft | 341 kts | 355° |
| 2026-05-06 21:04 | -13.67921 | 13.49531 | 14974 ft | 341 kts | 355° |
| 2026-05-06 21:04 | -13.65560 | 13.49332 | 14974 ft | 341 kts | 355° |
| 2026-05-06 21:04 | -13.63186 | 13.49131 | 14973 ft | 342 kts | 355° |
| 2026-05-06 21:05 | -13.60817 | 13.48932 | 14977 ft | 342 kts | 355° |
| 2026-05-06 21:05 | -13.58447 | 13.48732 | 14976 ft | 342 kts | 355° |
| 2026-05-06 21:05 | -13.56075 | 13.48532 | 14977 ft | 342 kts | 355° |
| 2026-05-06 21:05 | -13.53697 | 13.48332 | 14971 ft | 342 kts | 355° |
| 2026-05-06 21:06 | -13.51355 | 13.48135 | 14971 ft | 342 kts | 355° |
| 2026-05-06 21:06 | -13.48954 | 13.47933 | 14967 ft | 342 kts | 355° |
| 2026-05-06 21:06 | -13.46579 | 13.47733 | 14968 ft | 342 kts | 355° |
| 2026-05-06 21:06 | -13.44234 | 13.47536 | 14966 ft | 342 kts | 355° |
| 2026-05-06 21:07 | -13.41860 | 13.47336 | 14969 ft | 342 kts | 355° |
| 2026-05-06 21:07 | -13.39486 | 13.47136 | 14967 ft | 342 kts | 355° |
| 2026-05-06 21:07 | -13.37113 | 13.46937 | 14965 ft | 342 kts | 355° |
| 2026-05-06 21:07 | -13.34732 | 13.46736 | 14962 ft | 342 kts | 355° |
| 2026-05-06 21:08 | -13.32354 | 13.46537 | 14965 ft | 342 kts | 355° |
| 2026-05-06 21:08 | -13.29977 | 13.46336 | 14962 ft | 342 kts | 355° |
| 2026-05-06 21:08 | -13.27605 | 13.46137 | 14963 ft | 342 kts | 355° |
| 2026-05-06 21:08 | -13.25229 | 13.45938 | 14967 ft | 342 kts | 355° |
| 2026-05-06 21:09 | -13.22855 | 13.45738 | 14970 ft | 343 kts | 355° |
| 2026-05-06 21:09 | -13.20477 | 13.45538 | 14966 ft | 343 kts | 355° |
| 2026-05-06 21:09 | -13.18102 | 13.45339 | 14969 ft | 343 kts | 355° |
| 2026-05-06 21:09 | -13.15727 | 13.45139 | 14965 ft | 343 kts | 355° |
| 2026-05-06 21:10 | -13.13351 | 13.44940 | 14966 ft | 343 kts | 355° |
| 2026-05-06 21:10 | -13.11006 | 13.44743 | 14966 ft | 343 kts | 355° |
| 2026-05-06 21:10 | -13.08625 | 13.44543 | 14967 ft | 343 kts | 355° |
| 2026-05-06 21:10 | -13.06249 | 13.44345 | 14962 ft | 343 kts | 355° |
| 2026-05-06 21:11 | -13.03873 | 13.44145 | 14961 ft | 343 kts | 355° |
| 2026-05-06 21:11 | -13.01494 | 13.43945 | 14959 ft | 343 kts | 355° |
| 2026-05-06 21:11 | -12.99120 | 13.43746 | 14959 ft | 342 kts | 355° |
| 2026-05-06 21:11 | -12.96744 | 13.43547 | 14960 ft | 342 kts | 355° |
| 2026-05-06 21:12 | -12.94370 | 13.43348 | 14957 ft | 342 kts | 355° |
| 2026-05-06 21:12 | -12.91995 | 13.43149 | 14961 ft | 343 kts | 355° |
| 2026-05-06 21:12 | -12.89619 | 13.42950 | 14953 ft | 343 kts | 355° |
| 2026-05-06 21:12 | -12.87245 | 13.42751 | 14954 ft | 343 kts | 355° |
| 2026-05-06 21:13 | -12.84868 | 13.42552 | 14954 ft | 342 kts | 355° |
| 2026-05-06 21:13 | -12.82495 | 13.42353 | 14951 ft | 342 kts | 355° |
| 2026-05-06 21:13 | -12.80121 | 13.42155 | 14954 ft | 343 kts | 355° |
| 2026-05-06 21:13 | -12.77739 | 13.41956 | 14952 ft | 342 kts | 355° |
| 2026-05-06 21:14 | -12.75366 | 13.41757 | 14947 ft | 342 kts | 355° |
| 2026-05-06 21:14 | -12.72988 | 13.41557 | 14947 ft | 342 kts | 355° |
| 2026-05-06 21:14 | -12.70614 | 13.41360 | 14948 ft | 343 kts | 355° |
| 2026-05-06 21:14 | -12.68233 | 13.41342 | 14943 ft | 343 kts | 5° |
| 2026-05-06 21:15 | -12.65866 | 13.41658 | 14950 ft | 343 kts | 8° |
| 2026-05-06 21:15 | -12.63502 | 13.42001 | 14948 ft | 343 kts | 5° |
| 2026-05-06 21:15 | -12.61123 | 13.42168 | 14946 ft | 343 kts | 4° |
| 2026-05-06 21:15 | -12.58732 | 13.42400 | 14731 ft | 348 kts | 5° |
| 2026-05-06 21:16 | -12.56315 | 13.42604 | 14389 ft | 348 kts | 4° |
| 2026-05-06 21:16 | -12.53911 | 13.42747 | 14049 ft | 346 kts | 358° |
| 2026-05-06 21:16 | -12.51514 | 13.42588 | 13706 ft | 345 kts | 354° |
| 2026-05-06 21:16 | -12.49133 | 13.42333 | 13325 ft | 344 kts | 353° |
| 2026-05-06 21:17 | -12.46752 | 13.42056 | 12941 ft | 344 kts | 354° |
| 2026-05-06 21:17 | -12.44460 | 13.41420 | 12572 ft | 344 kts | 332° |
| 2026-05-06 21:17 | -12.42613 | 13.39871 | 12217 ft | 345 kts | 314° |
| 2026-05-06 21:17 | -12.40936 | 13.38113 | 11859 ft | 345 kts | 317° |
| 2026-05-06 21:18 | -12.39040 | 13.36619 | 11503 ft | 344 kts | 331° |
| 2026-05-06 21:18 | -12.36854 | 13.35736 | 11159 ft | 343 kts | 348° |
| 2026-05-06 21:18 | -12.34483 | 13.35556 | 10751 ft | 342 kts | 6° |
| 2026-05-06 21:18 | -12.32178 | 13.36108 | 10299 ft | 341 kts | 24° |
| 2026-05-06 21:19 | -12.30164 | 13.37311 | 10237 ft | 332 kts | 38° |
| 2026-05-06 21:19 | -12.28576 | 13.38992 | 10203 ft | 328 kts | 54° |
| 2026-05-06 21:19 | -12.27609 | 13.41076 | 10179 ft | 321 kts | 76° |
| 2026-05-06 21:19 | -12.27293 | 13.43157 | 10125 ft | 275 kts | 84° |
| 2026-05-06 21:20 | -12.27225 | 13.45034 | 9680 ft | 255 kts | 89° |
| 2026-05-06 21:20 | -12.27287 | 13.46819 | 8999 ft | 249 kts | 96° |
| 2026-05-06 21:20 | -12.27603 | 13.48553 | 8217 ft | 248 kts | 102° |
| 2026-05-06 21:20 | -12.28013 | 13.50271 | 7398 ft | 250 kts | 113° |
| 2026-05-06 21:21 | -12.29156 | 13.51570 | 6627 ft | 250 kts | 151° |
| 2026-05-06 21:21 | -12.30840 | 13.51897 | 5837 ft | 250 kts | 185° |
| 2026-05-06 21:21 | -12.32548 | 13.51582 | 5040 ft | 249 kts | 192° |
| 2026-05-06 21:21 | -12.34233 | 13.51185 | 4209 ft | 248 kts | 191° |
| 2026-05-06 21:22 | -12.35930 | 13.50893 | 3406 ft | 247 kts | 189° |
| 2026-05-06 21:22 | -12.37613 | 13.50596 | 2662 ft | 244 kts | 190° |
| 2026-05-06 21:22 | -12.39211 | 13.50295 | 2270 ft | 228 kts | 189° |
| 2026-05-06 21:22 | -12.40706 | 13.50022 | 2083 ft | 209 kts | 194° |
| 2026-05-06 21:23 | -12.41824 | 13.49190 | 1794 ft | 212 kts | 239° |
| 2026-05-06 21:23 | -12.42069 | 13.47670 | 1599 ft | 227 kts | 282° |
| 2026-05-06 21:23 | -12.41318 | 13.46284 | 1699 ft | 223 kts | 315° |
| 2026-05-06 21:23 | -12.39993 | 13.45490 | 1742 ft | 219 kts | 341° |
| 2026-05-06 21:24 | -12.38553 | 13.45173 | 1980 ft | 207 kts | 353° |
| 2026-05-06 21:24 | -12.37118 | 13.45068 | 2004 ft | 207 kts | 1° |
| 2026-05-06 21:24 | -12.35677 | 13.45229 | 1979 ft | 208 kts | 13° |
| 2026-05-06 21:24 | -12.34330 | 13.45700 | 2095 ft | 203 kts | 23° |
| 2026-05-06 21:25 | -12.33050 | 13.46337 | 2057 ft | 207 kts | 29° |
| 2026-05-06 21:25 | -12.31808 | 13.47099 | 2056 ft | 208 kts | 33° |
| 2026-05-06 21:25 | -12.30720 | 13.48044 | 2034 ft | 209 kts | 57° |
| 2026-05-06 21:25 | -12.30543 | 13.49457 | 2103 ft | 203 kts | 109° |
| 2026-05-06 21:26 | -12.31368 | 13.50463 | 2447 ft | 168 kts | 153° |
| 2026-05-06 21:26 | -12.32407 | 13.50713 | 2636 ft | 150 kts | 174° |
| 2026-05-06 21:26 | -12.33475 | 13.50767 | 2425 ft | 153 kts | 178° |
| 2026-05-06 21:26 | -12.34517 | 13.50754 | 2132 ft | 145 kts | 181° |
| 2026-05-06 21:27 | -12.35554 | 13.50724 | 1897 ft | 153 kts | 182° |
| 2026-05-06 21:27 | -12.36580 | 13.50673 | 1632 ft | 147 kts | 184° |
| 2026-05-06 21:27 | -12.37559 | 13.50565 | 1467 ft | 136 kts | 187° |
| 2026-05-06 21:27 | -12.38449 | 13.50444 | 1343 ft | 124 kts | 188° |
| 2026-05-06 21:28 | -12.39300 | 13.50326 | 1205 ft | 123 kts | 189° |
| 2026-05-06 21:28 | -12.40145 | 13.50190 | 1074 ft | 122 kts | 192° |
| 2026-05-06 21:28 | -12.40970 | 13.50027 | 1005 ft | 119 kts | 191° |
| 2026-05-06 21:28 | -12.41792 | 13.49885 | 898 ft | 120 kts | 191° |
| 2026-05-06 21:29 | -12.42608 | 13.49731 | 770 ft | 120 kts | 192° |
| 2026-05-06 21:29 | -12.43429 | 13.49569 | 702 ft | 120 kts | 193° |
| 2026-05-06 21:29 | -12.44254 | 13.49395 | 560 ft | 122 kts | 193° |
| 2026-05-06 21:29 | -12.45093 | 13.49255 | 409 ft | 123 kts | 189° |
| 2026-05-06 21:30 | -12.45910 | 13.49115 | 96 ft | 115 kts | 192° |
| 2026-05-06 21:30 | -12.46607 | 13.48975 | 14 ft | 87 kts | 190° |
| 2026-05-06 21:30 | -12.47088 | 13.48890 | 13 ft | 34 kts | 175° |
| 2026-05-06 21:30 | -12.47163 | 13.48967 | 13 ft | 15 kts | 101° |
| 2026-05-06 21:31 | -12.47206 | 13.49035 | 12 ft | 8 kts | 186° |
| 2026-05-06 21:31 | -12.47279 | 13.49022 | 14 ft | 17 kts | 191° |
| 2026-05-06 21:31 | -12.47447 | 13.48981 | 11 ft | 32 kts | 192° |
| 2026-05-06 21:31 | -12.47704 | 13.48933 | 13 ft | 39 kts | 187° |
| 2026-05-06 21:32 | -12.47821 | 13.48918 | 9 ft | 10 kts | 188° |
| 2026-05-06 21:32 | -12.48028 | 13.48887 | 12 ft | 14 kts | 159° |
| 2026-05-06 21:32 | -12.48076 | 13.48991 | 12 ft | 14 kts | 102° |
| 2026-05-06 21:33 | -12.48090 | 13.49057 | 13 ft | 8 kts | 100° |
| 2026-05-06 21:33 | -12.48111 | 13.49091 | 13 ft | 1 kts | 86° |
| 2026-05-06 21:33 | -12.48110 | 13.49094 | 13 ft | 0 kts | 86° |